createdAt,value
2022-11-21T00:01:23.305Z,5.50
2022-11-21T00:03:51.254Z,4.57
2022-11-21T00:06:19.924Z,5.67
2022-11-21T00:08:47.442Z,4.93
2022-11-21T00:11:15.332Z,4.70
2022-11-21T00:13:43.366Z,6.30
2022-11-21T00:16:14.741Z,6.03
2022-11-21T00:18:42.508Z,4.73
2022-11-21T00:21:18.067Z,4.57
2022-11-21T00:23:47.288Z,6.37
2022-11-21T00:26:16.731Z,6.13
2022-11-21T00:28:43.832Z,6.53
2022-11-21T00:31:23.616Z,5.23
2022-11-21T00:33:50.567Z,6.57
2022-11-21T00:36:17.627Z,5.20
2022-11-21T00:38:44.594Z,4.90
2022-11-21T00:41:11.534Z,5.10
2022-11-21T00:43:38.434Z,5.40
2022-11-21T00:46:05.384Z,4.80
2022-11-21T00:48:33.529Z,5.43
2022-11-21T00:51:00.972Z,5.10
2022-11-21T00:53:29.611Z,5.60
2022-11-21T00:55:56.667Z,5.20
2022-11-21T00:58:23.776Z,5.47
2022-11-21T01:00:50.852Z,4.67
2022-11-21T01:03:18.047Z,4.60
2022-11-21T01:05:45.030Z,5.07
2022-11-21T01:08:11.959Z,5.53
2022-11-21T01:10:38.877Z,5.10
2022-11-21T01:13:05.848Z,5.07
2022-11-21T01:15:34.410Z,5.00
2022-11-21T01:18:01.466Z,6.20
2022-11-21T01:20:28.389Z,4.83
2022-11-21T01:22:55.265Z,5.10
2022-11-21T01:25:22.255Z,4.50
2022-11-21T01:27:49.223Z,4.03
2022-11-21T01:30:16.268Z,4.10
2022-11-21T01:32:43.207Z,4.07
2022-11-21T01:35:10.143Z,4.10
2022-11-21T01:37:37.132Z,3.83
2022-11-21T01:40:04.659Z,4.40
2022-11-21T01:42:47.068Z,4.60
2022-11-21T01:45:56.500Z,5.50
2022-11-21T01:48:32.767Z,3.77
2022-11-21T01:51:21.143Z,3.80
2022-11-21T01:54:11.852Z,3.77
2022-11-21T01:56:50.901Z,3.73
2022-11-21T01:59:40.492Z,4.73
2022-11-21T02:02:11.270Z,3.20
2022-11-21T02:04:40.797Z,4.13
2022-11-21T02:07:08.620Z,2.73
2022-11-21T02:09:42.770Z,2.80
2022-11-21T02:12:21.839Z,2.87
2022-11-21T02:14:49.239Z,2.90
2022-11-21T02:17:19.303Z,3.23
2022-11-21T02:19:56.249Z,2.17
2022-11-21T02:23:03.638Z,1.87
2022-11-21T02:25:38.059Z,2.13
2022-11-21T02:28:12.199Z,2.63
2022-11-21T02:30:41.713Z,10.73
2022-11-21T02:33:09.862Z,2.33
2022-11-21T02:35:37.171Z,2.13
2022-11-21T02:38:24.382Z,2.33
2022-11-21T02:41:17.448Z,2.23
2022-11-21T02:43:52.013Z,2.00
2022-11-21T02:46:18.968Z,2.23
2022-11-21T02:48:47.099Z,2.10
2022-11-21T02:51:14.008Z,2.70
2022-11-21T02:53:40.988Z,2.00
2022-11-21T02:56:08.264Z,2.07
2022-11-21T02:58:35.578Z,1.70
2022-11-21T03:01:02.447Z,2.30
2022-11-21T03:03:29.409Z,2.33
2022-11-21T03:05:57.306Z,2.70
2022-11-21T03:08:24.279Z,2.17
2022-11-21T03:10:51.178Z,2.03
2022-11-21T03:13:18.331Z,2.43
2022-11-21T03:15:45.197Z,2.40
2022-11-21T03:18:12.085Z,2.50
2022-11-21T03:20:39.070Z,3.00
2022-11-21T03:23:06.000Z,2.40
2022-11-21T03:25:32.965Z,3.40
2022-11-21T03:27:59.876Z,2.63
2022-11-21T03:30:27.666Z,2.30
2022-11-21T03:32:58.728Z,2.57
2022-11-21T03:35:26.556Z,2.47
2022-11-21T03:37:53.909Z,1.73
2022-11-21T03:40:20.894Z,2.20
2022-11-21T03:42:47.849Z,2.40
2022-11-21T03:45:14.859Z,1.63
2022-11-21T03:47:41.861Z,2.10
2022-11-21T03:50:10.081Z,1.90
2022-11-21T03:52:36.914Z,1.87
2022-11-21T03:55:04.034Z,1.60
2022-11-21T03:57:30.959Z,1.73
2022-11-21T03:59:57.911Z,2.60
2022-11-21T04:02:24.822Z,1.50
2022-11-21T04:04:51.721Z,1.80
2022-11-21T04:07:18.802Z,1.80
2022-11-21T04:09:45.767Z,1.90
2022-11-21T04:12:12.696Z,1.57
2022-11-21T04:14:39.611Z,1.70
2022-11-21T04:17:06.684Z,1.80
2022-11-21T04:19:33.587Z,1.40
2022-11-21T04:22:00.495Z,1.87
2022-11-21T04:24:27.653Z,1.43
2022-11-21T04:26:55.895Z,1.43
2022-11-21T04:29:22.858Z,1.40
2022-11-21T04:31:49.830Z,1.47
2022-11-21T04:34:16.820Z,1.77
2022-11-21T04:36:43.835Z,1.57
2022-11-21T04:39:10.844Z,1.47
2022-11-21T04:41:37.726Z,1.70
2022-11-21T04:44:05.040Z,1.73
2022-11-21T04:46:32.196Z,1.40
2022-11-21T04:48:59.132Z,1.73
2022-11-21T04:51:26.114Z,1.30
2022-11-21T04:53:52.998Z,1.80
2022-11-21T04:56:19.969Z,1.40
2022-11-21T04:58:46.935Z,1.67
2022-11-21T05:01:14.001Z,1.50
2022-11-21T05:03:41.072Z,2.00
2022-11-21T05:06:08.585Z,1.50
2022-11-21T05:08:35.465Z,1.50
2022-11-21T05:11:21.021Z,1.77
2022-11-21T05:13:47.970Z,1.97
2022-11-21T05:16:14.996Z,1.73
2022-11-21T05:18:41.933Z,1.73
2022-11-21T05:21:09.215Z,1.50
2022-11-21T05:23:36.138Z,1.93
2022-11-21T05:26:03.072Z,1.90
2022-11-21T05:28:29.928Z,1.93
2022-11-21T05:30:56.951Z,1.97
2022-11-21T05:33:23.829Z,1.87
2022-11-21T05:35:50.807Z,1.73
2022-11-21T05:38:17.686Z,2.73
2022-11-21T05:40:44.599Z,2.63
2022-11-21T05:43:31.402Z,2.20
2022-11-21T05:45:58.648Z,2.57
2022-11-21T05:48:25.533Z,2.17
2022-11-21T05:50:52.623Z,3.40
2022-11-21T05:53:19.634Z,2.20
2022-11-21T05:55:47.107Z,2.13
2022-11-21T05:58:14.902Z,1.93
2022-11-21T06:00:42.387Z,1.73
2022-11-21T06:03:27.324Z,2.00
2022-11-21T06:06:19.655Z,1.83
2022-11-21T06:08:49.246Z,2.77
2022-11-21T06:11:16.982Z,2.30
2022-11-21T06:13:44.254Z,2.20
2022-11-21T06:16:15.389Z,2.20
2022-11-21T06:18:45.589Z,2.10
2022-11-21T06:21:16.770Z,2.00
2022-11-21T06:23:45.041Z,1.87
2022-11-21T06:26:18.610Z,2.07
2022-11-21T06:28:47.054Z,2.23
2022-11-21T06:31:19.212Z,1.90
2022-11-21T06:33:46.738Z,1.50
2022-11-21T06:36:17.083Z,1.80
2022-11-21T06:38:45.773Z,3.10
2022-11-21T06:41:16.817Z,2.60
2022-11-21T06:43:44.646Z,1.73
2022-11-21T06:46:12.821Z,3.30
2022-11-21T06:48:40.813Z,1.90
2022-11-21T06:51:27.942Z,1.67
2022-11-21T06:53:59.335Z,1.40
2022-11-21T06:56:29.487Z,1.80
2022-11-21T06:58:57.251Z,1.87
2022-11-21T07:01:25.502Z,2.00
2022-11-21T07:03:54.007Z,1.73
2022-11-21T07:06:21.950Z,1.83
2022-11-21T07:09:17.625Z,1.87
2022-11-21T07:11:40.373Z,1.40
2022-11-21T07:14:09.260Z,1.60
2022-11-21T07:16:37.580Z,1.63
2022-11-21T07:19:04.655Z,2.50
2022-11-21T07:21:31.602Z,1.40
2022-11-21T07:23:58.729Z,1.87
2022-11-21T07:26:25.785Z,2.23
2022-11-21T07:28:52.709Z,2.13
2022-11-21T07:31:19.647Z,1.43
2022-11-21T07:33:47.751Z,2.57
2022-11-21T07:36:15.221Z,2.43
2022-11-21T07:38:42.533Z,1.60
2022-11-21T07:41:10.313Z,1.57
2022-11-21T07:43:37.304Z,1.57
2022-11-21T07:46:04.200Z,5.40
2022-11-21T07:48:31.147Z,3.17
2022-11-21T07:50:58.132Z,1.90
2022-11-21T07:53:25.061Z,3.33
2022-11-21T07:55:52.013Z,1.70
2022-11-21T07:58:18.966Z,2.53
2022-11-21T08:00:46.179Z,2.93
2022-11-21T08:03:13.636Z,1.57
2022-11-21T08:05:43.310Z,1.23
2022-11-21T08:08:12.624Z,1.47
2022-11-21T08:10:43.059Z,1.43
2022-11-21T08:13:11.483Z,1.43
2022-11-21T08:15:39.235Z,1.90
2022-11-21T08:18:19.507Z,0.97
2022-11-21T08:20:46.828Z,5.67
2022-11-21T08:23:14.131Z,1.00
2022-11-21T08:25:42.711Z,3.03
2022-11-21T08:28:12.301Z,1.57
2022-11-21T08:30:40.424Z,1.20
2022-11-21T08:33:07.913Z,2.53
2022-11-21T08:35:40.575Z,1.10
2022-11-21T08:38:07.549Z,1.10
2022-11-21T08:40:35.876Z,1.00
2022-11-21T08:43:09.173Z,1.40
2022-11-21T08:45:37.716Z,1.10
2022-11-21T08:48:12.563Z,1.10
2022-11-21T08:50:39.866Z,2.00
2022-11-21T08:53:07.158Z,0.93
2022-11-21T08:55:34.234Z,2.77
2022-11-21T08:58:01.160Z,2.23
2022-11-21T09:00:28.106Z,2.27
2022-11-21T09:02:55.186Z,1.20
2022-11-21T09:05:22.126Z,1.00
2022-11-21T09:07:49.154Z,1.07
2022-11-21T09:10:16.188Z,1.27
2022-11-21T09:12:44.012Z,1.47
2022-11-21T09:15:30.719Z,2.10
2022-11-21T09:18:03.328Z,3.07
2022-11-21T09:20:39.711Z,1.97
2022-11-21T09:23:13.713Z,1.80
2022-11-21T09:25:41.689Z,1.63
2022-11-21T09:28:11.429Z,1.70
2022-11-21T09:30:39.054Z,1.97
2022-11-21T09:33:14.265Z,2.40
2022-11-21T09:35:41.315Z,2.60
2022-11-21T09:38:09.132Z,1.67
2022-11-21T09:40:36.896Z,1.90
2022-11-21T09:43:30.464Z,1.60
2022-11-21T09:46:11.384Z,2.80
2022-11-21T09:49:00.943Z,3.13
2022-11-21T09:51:31.415Z,4.20
2022-11-21T09:54:19.809Z,1.73
2022-11-21T09:56:48.890Z,1.50
2022-11-21T09:59:21.770Z,1.70
2022-11-21T10:01:48.904Z,1.63
2022-11-21T10:04:15.908Z,1.57
2022-11-21T10:06:59.074Z,1.70
2022-11-21T10:10:13.929Z,2.33
2022-11-21T10:12:55.704Z,1.30
2022-11-21T10:16:02.848Z,1.67
2022-11-21T10:19:23.332Z,2.60
2022-11-21T10:22:01.497Z,3.00
2022-11-21T10:24:35.753Z,1.40
2022-11-21T10:27:19.728Z,1.10
2022-11-21T10:30:17.979Z,2.17
2022-11-21T10:32:50.010Z,2.90
2022-11-21T10:35:21.847Z,1.10
2022-11-21T10:38:02.126Z,1.77
2022-11-21T10:40:38.872Z,2.10
2022-11-21T10:43:33.593Z,3.47
2022-11-21T10:46:00.447Z,1.60
2022-11-21T10:48:27.415Z,1.30
2022-11-21T10:51:14.294Z,1.13
2022-11-21T10:54:04.636Z,1.20
2022-11-21T10:56:36.092Z,1.33
2022-11-21T10:59:19.912Z,1.33
2022-11-21T11:01:57.955Z,1.40
2022-11-21T11:04:29.024Z,1.53
2022-11-21T11:06:57.624Z,2.00
2022-11-21T11:09:31.992Z,1.03
2022-11-21T11:12:49.157Z,3.00
2022-11-21T11:15:25.928Z,1.57
2022-11-21T11:18:07.405Z,1.17
2022-11-21T11:20:45.143Z,1.50
2022-11-21T11:23:25.668Z,1.47
2022-11-21T11:26:00.742Z,1.67
2022-11-21T11:28:36.532Z,1.30
2022-11-21T11:31:03.914Z,1.33
2022-11-21T11:33:40.832Z,1.40
2022-11-21T11:36:39.775Z,1.00
2022-11-21T11:39:37.929Z,1.60
2022-11-21T11:42:49.856Z,1.67
2022-11-21T11:45:45.355Z,3.60
2022-11-21T11:48:19.198Z,1.53
2022-11-21T11:50:53.541Z,1.00
2022-11-21T11:53:37.232Z,2.20
2022-11-21T11:56:27.863Z,0.90
2022-11-21T11:59:05.023Z,1.30
2022-11-21T12:02:05.292Z,2.93
2022-11-21T12:04:47.198Z,1.70
2022-11-21T12:11:10.642Z,10.70
2022-11-21T12:13:38.731Z,2.87
2022-11-21T12:16:14.021Z,2.60
2022-11-21T12:19:09.151Z,2.93
2022-11-21T12:21:36.090Z,1.33
2022-11-21T12:24:05.024Z,1.43
2022-11-21T12:27:01.231Z,1.43
2022-11-21T12:30:03.728Z,2.43
2022-11-21T12:32:45.123Z,1.70
2022-11-21T12:35:48.403Z,1.83
2022-11-21T12:38:34.773Z,2.10
2022-11-21T12:41:35.876Z,1.73
2022-11-21T12:44:13.296Z,2.40
2022-11-21T12:47:15.581Z,2.20
2022-11-21T12:50:37.528Z,3.30
2022-11-21T12:53:56.012Z,4.13
2022-11-21T12:56:51.994Z,3.30
2022-11-21T12:59:20.115Z,5.13
2022-11-21T13:02:12.821Z,4.03
2022-11-21T13:04:42.498Z,3.30
2022-11-21T13:07:10.311Z,3.50
2022-11-21T13:09:45.403Z,1.93
2022-11-21T13:12:49.210Z,2.07
2022-11-21T13:15:50.342Z,2.17
2022-11-21T13:18:30.642Z,3.17
2022-11-21T13:20:59.044Z,2.57
2022-11-21T13:23:41.564Z,3.47
2022-11-21T13:26:31.954Z,3.10
2022-11-21T13:29:14.893Z,3.13
2022-11-21T13:31:43.534Z,1.87
2022-11-21T13:34:31.864Z,2.97
2022-11-21T13:36:59.709Z,1.47
2022-11-21T13:39:36.396Z,3.70
2022-11-21T13:42:27.729Z,1.87
2022-11-21T13:44:54.792Z,3.73
2022-11-21T13:47:58.192Z,1.60
2022-11-21T13:50:56.525Z,2.43
2022-11-21T13:53:58.429Z,3.23
2022-11-21T13:56:57.609Z,2.43
2022-11-21T13:59:27.675Z,3.93
2022-11-21T14:02:36.554Z,2.27
2022-11-21T14:05:31.124Z,2.37
2022-11-21T14:08:25.683Z,3.47
2022-11-21T14:10:55.752Z,7.63
2022-11-21T14:13:36.894Z,5.07
2022-11-21T14:16:18.109Z,2.80
2022-11-21T14:18:47.181Z,3.97
2022-11-21T14:21:29.102Z,3.93
2022-11-21T14:24:04.572Z,3.03
2022-11-21T14:26:40.370Z,2.77
2022-11-21T14:29:26.948Z,2.63
2022-11-21T14:31:55.833Z,6.63
2022-11-21T14:34:29.371Z,1.67
2022-11-21T14:37:00.454Z,2.70
2022-11-21T14:39:43.709Z,2.10
2022-11-21T14:42:16.830Z,2.40
2022-11-21T14:44:44.387Z,2.47
2022-11-21T14:47:25.331Z,2.20
2022-11-21T14:50:00.908Z,2.80
2022-11-21T14:52:33.199Z,2.57
2022-11-21T14:57:53.222Z,3.13
2022-11-21T15:00:57.443Z,2.60
2022-11-21T15:03:24.230Z,3.30
2022-11-21T15:06:06.327Z,6.63
2022-11-21T15:10:05.363Z,2.70
2022-11-21T15:11:52.491Z,3.27
2022-11-21T15:14:42.976Z,2.70
2022-11-21T15:17:17.800Z,5.20
2022-11-21T15:19:47.209Z,3.27
2022-11-21T15:22:29.980Z,3.97
2022-11-21T15:25:19.754Z,3.00
2022-11-21T15:28:11.914Z,2.20
2022-11-21T15:30:39.091Z,6.30
2022-11-21T15:33:26.161Z,2.30
2022-11-21T15:35:55.700Z,3.23
2022-11-21T15:38:47.383Z,1.70
2022-11-21T15:41:14.783Z,2.23
2022-11-21T15:44:13.596Z,2.03
2022-11-21T15:46:43.412Z,1.73
2022-11-21T15:52:09.745Z,2.90
2022-11-21T15:54:38.288Z,2.10
2022-11-21T15:57:05.216Z,6.50
2022-11-21T15:57:10.869Z,1.93
2022-11-21T15:59:32.469Z,2.47
2022-11-21T16:01:59.706Z,4.37
2022-11-21T16:04:27.281Z,2.53
2022-11-21T16:06:55.238Z,2.87
2022-11-21T16:09:22.354Z,2.60
2022-11-21T16:11:49.233Z,3.17
2022-11-21T16:14:18.610Z,3.80
2022-11-21T16:16:47.589Z,3.47
2022-11-21T16:19:16.132Z,3.43
2022-11-21T16:21:43.538Z,3.43
2022-11-21T16:24:10.598Z,3.73
2022-11-21T16:26:37.831Z,4.90
2022-11-21T16:29:05.874Z,5.60
2022-11-21T16:31:33.861Z,6.70
2022-11-21T16:34:01.058Z,4.90
2022-11-21T16:36:32.775Z,5.03
2022-11-21T16:39:08.756Z,5.33
2022-11-21T16:41:39.612Z,5.50
2022-11-21T16:44:21.583Z,6.10
2022-11-21T16:46:51.752Z,5.53
2022-11-21T16:49:20.359Z,5.40
2022-11-21T16:51:47.525Z,5.10
2022-11-21T16:54:15.493Z,6.97
2022-11-21T16:56:42.677Z,5.90
2022-11-21T16:59:10.158Z,7.17
2022-11-21T17:01:37.145Z,9.33
2022-11-21T17:04:04.343Z,8.00
2022-11-21T17:06:31.845Z,9.43
2022-11-21T17:09:02.900Z,9.43
2022-11-21T17:11:31.653Z,9.70
2022-11-21T17:14:04.112Z,8.63
2022-11-21T17:16:32.893Z,10.63
2022-11-21T17:19:02.145Z,11.03
2022-11-21T17:21:30.114Z,13.00
2022-11-21T17:23:58.610Z,12.80
2022-11-21T17:26:30.192Z,10.43
2022-11-21T17:29:04.387Z,9.43
2022-11-21T17:31:40.353Z,15.00
2022-11-21T17:34:09.880Z,16.37
2022-11-21T17:36:36.897Z,13.53
2022-11-21T17:39:10.301Z,14.10
2022-11-21T17:41:38.348Z,13.33
2022-11-21T17:44:06.030Z,19.33
2022-11-21T17:46:33.270Z,13.93
2022-11-21T17:49:00.291Z,17.33
2022-11-21T17:51:34.620Z,14.07
2022-11-21T17:54:03.059Z,13.80
2022-11-21T17:56:33.387Z,18.67
2022-11-21T17:59:00.733Z,16.97
2022-11-21T18:01:28.753Z,16.33
2022-11-21T18:04:02.017Z,13.90
2022-11-21T18:06:37.362Z,15.10
2022-11-21T18:09:07.163Z,15.03
2022-11-21T18:11:39.631Z,17.03
2022-11-21T18:14:09.798Z,15.30
2022-11-21T18:16:39.275Z,16.33
2022-11-21T18:19:06.451Z,16.10
2022-11-21T18:21:35.976Z,22.33
2022-11-21T18:24:03.137Z,16.60
2022-11-21T18:26:34.032Z,14.17
2022-11-21T18:31:50.408Z,17.03
2022-11-21T18:34:17.974Z,12.97
2022-11-21T18:36:48.518Z,21.70
2022-11-21T18:39:19.237Z,17.43
2022-11-21T18:41:47.120Z,18.70
2022-11-21T18:44:21.401Z,15.20
2022-11-21T18:46:49.748Z,16.80
2022-11-21T18:49:16.812Z,13.80
2022-11-21T18:51:43.802Z,19.77
2022-11-21T18:54:11.475Z,16.37
2022-11-21T18:56:40.650Z,18.67
2022-11-21T18:59:08.430Z,15.33
2022-11-21T19:01:42.075Z,15.60
2022-11-21T19:04:10.228Z,13.33
2022-11-21T19:06:42.449Z,13.57
2022-11-21T19:09:16.351Z,13.53
2022-11-21T19:11:45.267Z,15.87
2022-11-21T19:14:19.503Z,17.17
2022-11-21T19:16:48.492Z,13.43
2022-11-21T19:19:35.082Z,19.17
2022-11-21T19:22:06.716Z,13.60
2022-11-21T19:24:33.796Z,14.73
2022-11-21T19:27:11.090Z,21.13
2022-11-21T19:29:48.781Z,15.80
2022-11-21T19:32:17.550Z,18.33
2022-11-21T19:34:44.419Z,20.10
2022-11-21T19:37:25.130Z,16.53
2022-11-21T19:39:53.523Z,15.50
2022-11-21T19:42:30.768Z,17.07
2022-11-21T19:45:00.048Z,17.80
2022-11-21T19:47:29.865Z,18.50
2022-11-21T19:49:57.794Z,19.37
2022-11-21T19:52:27.927Z,17.63
2022-11-21T19:54:56.633Z,16.23
2022-11-21T19:57:26.204Z,17.17
2022-11-21T19:59:53.453Z,20.20
2022-11-21T20:02:24.235Z,15.70
2022-11-21T20:04:54.623Z,16.23
2022-11-21T20:07:22.571Z,30.33
2022-11-21T20:09:49.687Z,19.90
2022-11-21T20:12:19.306Z,17.60
2022-11-21T20:14:51.864Z,16.10
2022-11-21T20:17:28.703Z,19.57
2022-11-21T20:20:09.862Z,16.47
2022-11-21T20:22:55.223Z,19.97
2022-11-21T20:25:34.080Z,21.60
2022-11-21T20:28:12.523Z,19.47
2022-11-21T20:30:55.385Z,20.27
2022-11-21T20:33:38.855Z,33.63
2022-11-21T20:36:22.109Z,21.33
2022-11-21T20:39:31.601Z,24.90
2022-11-21T20:42:04.871Z,19.73
2022-11-21T20:47:53.117Z,21.03
2022-11-21T20:51:25.144Z,19.10
2022-11-21T20:53:50.680Z,17.93
2022-11-21T20:56:10.961Z,20.27
2022-11-21T20:58:51.513Z,21.97
2022-11-21T21:01:39.513Z,20.67
2022-11-21T21:04:12.583Z,25.13
2022-11-21T21:06:39.800Z,19.23
2022-11-21T21:09:09.207Z,23.87
2022-11-21T21:11:51.351Z,21.40
2022-11-21T21:14:27.916Z,23.20
2022-11-21T21:17:06.090Z,22.83
2022-11-21T21:19:39.290Z,25.47
2022-11-21T21:22:09.392Z,18.87
2022-11-21T21:24:37.129Z,19.17
2022-11-21T21:27:07.712Z,20.23
2022-11-21T21:29:37.498Z,19.03
2022-11-21T21:32:05.390Z,20.67
2022-11-21T21:34:32.878Z,20.80
2022-11-21T21:37:00.813Z,21.83
2022-11-21T21:39:27.793Z,22.57
2022-11-21T21:41:54.970Z,26.37
2022-11-21T21:44:22.257Z,24.93
2022-11-21T21:46:49.155Z,26.00
2022-11-21T21:49:16.177Z,28.10
2022-11-21T21:51:43.453Z,25.27
2022-11-21T21:54:20.015Z,30.40
2022-11-21T21:56:48.288Z,24.17
2022-11-21T21:59:16.017Z,25.67
2022-11-21T22:01:43.147Z,26.00
2022-11-21T22:04:12.720Z,22.63
2022-11-21T22:06:39.772Z,26.23
2022-11-21T22:09:06.685Z,24.73
2022-11-21T22:11:38.367Z,22.93
2022-11-21T22:14:11.759Z,22.10
2022-11-21T22:16:39.227Z,28.77
2022-11-21T22:19:06.168Z,24.03
2022-11-21T22:21:36.790Z,23.43
2022-11-21T22:24:29.754Z,26.70
2022-11-21T22:26:56.906Z,20.77
2022-11-21T22:29:24.036Z,24.20
2022-11-21T22:31:51.851Z,22.70
2022-11-21T22:34:18.994Z,22.17
2022-11-21T22:36:47.050Z,23.00
2022-11-21T22:39:15.601Z,28.27
2022-11-21T22:41:42.529Z,26.37
2022-11-21T22:44:09.812Z,27.50
2022-11-21T22:46:36.699Z,27.63
2022-11-21T22:49:03.915Z,22.47
2022-11-21T22:51:30.852Z,24.60
2022-11-21T22:53:58.071Z,19.77
2022-11-21T22:56:26.805Z,20.83
2022-11-21T22:58:54.248Z,22.20
2022-11-21T23:01:24.643Z,20.10
2022-11-21T23:03:52.949Z,18.63
2022-11-21T23:06:24.113Z,21.87
2022-11-21T23:08:53.584Z,20.60
2022-11-21T23:11:36.209Z,20.80
2022-11-21T23:14:08.193Z,19.53
2022-11-21T23:16:35.211Z,18.97
2022-11-21T23:19:02.157Z,18.70
2022-11-21T23:21:29.133Z,19.87
2022-11-21T23:23:56.533Z,21.53
2022-11-21T23:26:23.705Z,21.00
2022-11-21T23:28:50.672Z,19.17
2022-11-21T23:31:17.714Z,21.47
2022-11-21T23:33:44.884Z,17.80
2022-11-21T23:36:11.864Z,17.00
2022-11-21T23:38:39.444Z,18.47
2022-11-21T23:41:06.398Z,19.87
2022-11-21T23:43:33.395Z,19.40
2022-11-21T23:46:00.322Z,21.40
2022-11-21T23:48:28.514Z,19.80
2022-11-21T23:50:55.534Z,19.27
2022-11-21T23:53:23.248Z,18.93
2022-11-21T23:55:50.249Z,19.40
2022-11-21T23:58:17.344Z,18.70
